Time;durP1;ratioP1;P1;durP2;ratioP2;P2;SDS_P1;SDS_P2;PMS_P1;PMS_P2;Temp;Humidity;BMP_temperature;BMP_pressure;BME280_temperature;BME280_humidity;BME280_pressure;Samples;Min_cycle;Max_cycle;Signal;HPM_P1;HPM_P2
2022/01/04 00:00:50;;;;;;;;;;;;;;;2.42;79.71;95239.91;5115776;28;980;-46
2022/01/04 00:03:16;;;;;;;;;;;;;;;2.38;79.97;95242.91;5115716;28;991;-46
2022/01/04 00:05:42;;;;;;;;;;;;;;;2.38;80.33;95243.72;5115913;28;984;-46
2022/01/04 00:08:11;;;;;;;;;;;;;;;2.58;79.96;95244.09;5115845;28;1869;-46
2022/01/04 00:10:38;;;;;;;;;;;;;;;2.48;78.88;95241.28;5115755;28;1001;-46
2022/01/04 00:13:23;;;;;;;;;;;;;;;2.10;80.21;95240.38;5116071;28;1157;-46
2022/01/04 00:15:53;;;;;;;;;;;;;;;1.91;81.01;95240.00;5068608;28;1353243;-46
2022/01/04 00:18:20;;;;;;;;;;;;;;;1.77;82.38;95240.94;5117368;28;1111;-46
2022/01/04 00:20:47;;;;;;;;;;;;;;;2.02;81.93;95224.25;5116726;28;975;-46
2022/01/04 00:23:13;;;;;;;;;;;;;;;2.24;81.18;95222.75;5117063;28;1059;-46
2022/01/04 00:25:39;;;;;;;;;;;;;;;2.24;80.23;95226.25;5116830;27;1973;-46
2022/01/04 00:28:07;;;;;;;;;;;;;;;2.38;80.26;95240.25;5116587;28;1035;-46
2022/01/04 00:30:37;;;;;;;;;;;;;;;2.31;80.03;95238.03;5116363;28;1011;-46
2022/01/04 00:33:03;;;;;;;;;;;;;;;2.26;80.25;95239.34;5115993;28;1059;-46
2022/01/04 00:35:30;;;;;;;;;;;;;;;2.29;79.59;95239.09;5116548;28;1044;-46
2022/01/04 00:37:57;;;;;;;;;;;;;;;2.10;80.50;95243.03;5116732;28;1015;-46
2022/01/04 00:40:24;;;;;;;;;;;;;;;2.24;80.91;95238.56;5116345;28;1035;-46
2022/01/04 00:42:51;;;;;;;;;;;;;;;2.41;80.56;95245.31;5116224;28;1095;-46
2022/01/04 00:45:18;;;;;;;;;;;;;;;2.27;79.87;95249.75;5116340;28;1906;-46
2022/01/04 00:49:09;;;;;;;;;;;;;;;1.96;80.74;95253.72;5116434;28;1048;-46
2022/01/04 00:50:31;;;;;;;;;;;;;;;1.99;81.25;95255.28;5116270;28;1008;-46
2022/01/04 00:52:57;;;;;;;;;;;;;;;2.11;81.72;95252.63;5116440;28;956;-46
2022/01/04 00:55:24;;;;;;;;;;;;;;;2.32;81.14;95255.56;5115925;28;1024;-46
2022/01/04 00:57:50;;;;;;;;;;;;;;;2.40;80.58;95252.38;5116030;28;1015;-46
2022/01/04 01:00:16;;;;;;;;;;;;;;;2.18;80.50;95258.31;5116085;28;1056;-46
2022/01/04 01:02:43;;;;;;;;;;;;;;;2.12;80.71;95250.84;5116130;28;1185;-46
2022/01/04 01:05:10;;;;;;;;;;;;;;;2.28;80.32;95250.63;5116152;28;1906;-46
2022/01/04 01:07:36;;;;;;;;;;;;;;;2.21;80.15;95247.56;5116027;27;1069;-46
2022/01/04 01:10:41;;;;;;;;;;;;;;;1.90;78.78;95254.97;5115766;28;995;-46
2022/01/04 01:13:08;;;;;;;;;;;;;;;1.82;80.07;95254.66;5115889;28;1212;-46
2022/01/04 01:15:34;;;;;;;;;;;;;;;1.65;80.11;95260.22;5115547;28;1136;-46
2022/01/04 01:18:00;;;;;;;;;;;;;;;1.80;80.40;95255.69;5115558;28;1095;-46
2022/01/04 01:20:27;;;;;;;;;;;;;;;1.91;79.88;95266.34;5115393;28;1098;-46
2022/01/04 01:22:53;;;;;;;;;;;;;;;1.79;80.88;95257.50;5115542;28;957;-46
2022/01/04 01:25:20;;;;;;;;;;;;;;;1.86;80.71;95256.16;5115676;28;1906;-46
2022/01/04 01:27:46;;;;;;;;;;;;;;;1.88;80.29;95251.59;5115522;28;1005;-46
2022/01/04 01:30:14;;;;;;;;;;;;;;;1.90;80.40;95249.72;5115697;28;1035;-46
2022/01/04 01:32:40;;;;;;;;;;;;;;;1.84;80.35;95242.22;5115342;28;1059;-46
2022/01/04 01:35:07;;;;;;;;;;;;;;;1.84;80.58;95236.09;5115851;28;1015;-46
2022/01/04 01:37:34;;;;;;;;;;;;;;;1.77;80.10;95232.22;5115387;28;1080;-46
2022/01/04 01:40:01;;;;;;;;;;;;;;;1.66;80.37;95225.88;5115258;28;1205;-46
2022/01/04 01:42:27;;;;;;;;;;;;;;;1.68;80.71;95228.41;5115217;28;973;-46
2022/01/04 01:44:54;;;;;;;;;;;;;;;1.63;80.95;95225.22;5114022;28;1891;-46
2022/01/04 01:47:20;;;;;;;;;;;;;;;1.57;80.65;95234.41;5115170;28;1027;-46
2022/01/04 01:49:46;;;;;;;;;;;;;;;1.48;80.24;95233.25;5114943;27;1031;-46
2022/01/04 01:52:12;;;;;;;;;;;;;;;1.39;81.65;95223.31;5115114;28;969;-46
2022/01/04 01:54:38;;;;;;;;;;;;;;;1.42;81.26;95214.34;5115208;28;988;-46
2022/01/04 01:57:05;;;;;;;;;;;;;;;1.44;81.26;95209.81;5114697;28;1188;-46
2022/01/04 01:59:31;;;;;;;;;;;;;;;1.46;81.05;95202.66;5115160;28;977;-46
2022/01/04 02:01:57;;;;;;;;;;;;;;;1.54;81.14;95206.47;5114805;28;995;-46
2022/01/04 02:04:23;;;;;;;;;;;;;;;1.49;80.53;95213.00;5113551;28;1909;-46
2022/01/04 02:06:50;;;;;;;;;;;;;;;1.46;80.75;95207.94;5114453;28;1011;-46
2022/01/04 02:09:16;;;;;;;;;;;;;;;1.37;81.04;95219.94;5114920;28;1052;-46
2022/01/04 02:11:43;;;;;;;;;;;;;;;1.19;81.45;95216.75;5114362;28;1854;-46
2022/01/04 02:14:09;;;;;;;;;;;;;;;1.20;81.74;95225.50;5114717;28;1095;-46
2022/01/04 02:16:35;;;;;;;;;;;;;;;1.41;81.39;95225.88;5114296;28;1850;-46
2022/01/04 02:19:02;;;;;;;;;;;;;;;1.40;80.51;95224.16;5114446;28;980;-46
2022/01/04 02:21:30;;;;;;;;;;;;;;;1.38;80.90;95231.31;5114280;28;1035;-46
2022/01/04 02:23:56;;;;;;;;;;;;;;;1.34;80.64;95223.63;5114570;28;1997;-46
2022/01/04 02:26:22;;;;;;;;;;;;;;;1.30;80.72;95219.50;5114132;28;925;-46
2022/01/04 02:28:50;;;;;;;;;;;;;;;1.35;81.18;95216.59;5114324;28;1047;-46
2022/01/04 02:31:16;;;;;;;;;;;;;;;1.35;81.35;95217.41;5113968;28;1012;-46
2022/01/04 02:33:43;;;;;;;;;;;;;;;1.25;81.03;95208.47;5114173;28;1001;-46
2022/01/04 02:36:09;;;;;;;;;;;;;;;0.93;81.02;95210.56;5114180;28;1040;-46
2022/01/04 02:38:37;;;;;;;;;;;;;;;0.99;82.27;95210.19;5114274;28;1068;-46
2022/01/04 02:41:03;;;;;;;;;;;;;;;1.26;81.74;95218.03;5114211;28;972;-46
2022/01/04 02:43:29;;;;;;;;;;;;;;;1.26;80.75;95215.41;5113995;28;1933;-45
2022/01/04 02:45:55;;;;;;;;;;;;;;;1.29;80.91;95209.06;5113912;28;1083;-46
2022/01/04 02:48:22;;;;;;;;;;;;;;;1.35;80.59;95212.16;5113906;28;1063;-46
2022/01/04 02:50:50;;;;;;;;;;;;;;;1.25;80.77;95205.81;5114237;28;968;-46
2022/01/04 02:53:16;;;;;;;;;;;;;;;1.16;80.53;95211.69;5113978;28;1079;-46
2022/01/04 02:55:42;;;;;;;;;;;;;;;1.06;81.62;95229.88;5113816;28;1094;-46
2022/01/04 02:58:08;;;;;;;;;;;;;;;1.18;82.08;95228.25;5114100;28;1059;-46
2022/01/04 03:00:34;;;;;;;;;;;;;;;1.26;81.04;95228.56;5114155;28;1051;-46
2022/01/04 03:03:00;;;;;;;;;;;;;;;1.28;80.65;95218.75;5113575;28;960;-46
2022/01/04 03:05:26;;;;;;;;;;;;;;;1.26;80.92;95215.41;5114012;28;1913;-46
2022/01/04 03:07:52;;;;;;;;;;;;;;;1.28;82.16;95216.13;5113911;28;1015;-46
2022/01/04 03:10:18;;;;;;;;;;;;;;;1.40;81.36;95208.34;5113770;28;1031;-46
2022/01/04 03:12:44;;;;;;;;;;;;;;;1.32;79.35;95206.25;5113506;28;1184;-46
2022/01/04 03:15:11;;;;;;;;;;;;;;;1.05;80.49;95175.53;5114797;28;1862;-46
2022/01/04 03:17:38;;;;;;;;;;;;;;;1.16;79.66;95209.91;5113568;28;1044;-45
2022/01/04 03:20:04;;;;;;;;;;;;;;;1.08;80.36;95208.72;5113638;28;1959;-46
2022/01/04 03:22:30;;;;;;;;;;;;;;;0.89;81.29;95195.94;5113549;28;1966;-46
2022/01/04 03:24:56;;;;;;;;;;;;;;;0.98;81.78;95195.31;5113444;28;1991;-46
2022/01/04 03:27:23;;;;;;;;;;;;;;;0.96;81.22;95199.84;5113390;28;1796;-46
2022/01/04 03:29:49;;;;;;;;;;;;;;;0.94;80.86;95193.84;5113443;28;1118;-46
2022/01/04 03:32:15;;;;;;;;;;;;;;;1.04;80.83;95191.44;5113592;28;1000;-45
2022/01/04 03:34:41;;;;;;;;;;;;;;;1.00;81.16;95200.50;5113789;28;1108;-46
2022/01/04 03:37:07;;;;;;;;;;;;;;;0.88;81.40;95197.72;5113432;28;1083;-46
2022/01/04 03:39:33;;;;;;;;;;;;;;;0.94;81.89;95199.94;5113544;28;1041;-46
2022/01/04 03:41:59;;;;;;;;;;;;;;;1.07;81.53;95201.78;5113365;28;1028;-46
2022/01/04 03:44:26;;;;;;;;;;;;;;;1.13;81.25;95201.38;5113180;28;1994;-46
2022/01/04 03:46:53;;;;;;;;;;;;;;;1.28;81.28;95208.22;5113382;28;1059;-46
2022/01/04 03:49:19;;;;;;;;;;;;;;;1.25;80.81;95215.50;5113563;28;1040;-46
2022/01/04 03:51:46;;;;;;;;;;;;;;;1.22;80.92;95211.28;5113634;28;1023;-46
2022/01/04 03:54:12;;;;;;;;;;;;;;;1.34;80.33;95199.91;5113192;28;1087;-46
2022/01/04 03:56:38;;;;;;;;;;;;;;;1.16;79.46;95198.53;5113319;28;1043;-46
2022/01/04 03:59:04;;;;;;;;;;;;;;;1.08;80.48;95203.44;5113400;28;1011;-46
2022/01/04 04:01:30;;;;;;;;;;;;;;;0.79;81.15;95203.59;5113162;28;1964;-46
2022/01/04 04:03:57;;;;;;;;;;;;;;;0.71;81.67;95195.34;5113075;28;1995;-46
2022/01/04 04:06:23;;;;;;;;;;;;;;;0.74;82.09;95196.00;5113291;28;1870;-46
2022/01/04 04:08:49;;;;;;;;;;;;;;;0.95;81.59;95199.00;5115586;28;1011;-46
2022/01/04 04:11:15;;;;;;;;;;;;;;;0.92;81.24;95201.84;5117070;28;1223;-46
2022/01/04 04:13:41;;;;;;;;;;;;;;;0.87;81.06;95198.66;5117001;27;976;-46
2022/01/04 04:16:07;;;;;;;;;;;;;;;0.86;80.94;95191.72;5116602;28;1309;-46
2022/01/04 04:18:34;;;;;;;;;;;;;;;0.77;80.81;95202.84;5116963;28;1074;-46
2022/01/04 04:21:00;;;;;;;;;;;;;;;0.78;81.08;95201.91;5117016;28;968;-46
2022/01/04 04:23:26;;;;;;;;;;;;;;;0.83;81.48;95207.69;5116751;28;1051;-46
2022/01/04 04:25:53;;;;;;;;;;;;;;;0.93;81.18;95216.69;5116690;28;1095;-46
2022/01/04 04:28:19;;;;;;;;;;;;;;;0.98;81.52;95214.59;5116535;28;1083;-46
2022/01/04 04:30:45;;;;;;;;;;;;;;;1.01;81.27;95212.72;5116371;28;1031;-46
2022/01/04 04:33:11;;;;;;;;;;;;;;;0.88;79.79;95213.53;5116735;28;1067;-46
2022/01/04 04:35:37;;;;;;;;;;;;;;;0.74;79.80;95205.66;5116616;28;987;-46
2022/01/04 04:38:05;;;;;;;;;;;;;;;0.64;81.43;95199.31;5116425;28;1044;-46
2022/01/04 04:40:31;;;;;;;;;;;;;;;0.67;81.75;95204.41;5116693;28;1020;-46
2022/01/04 04:42:57;;;;;;;;;;;;;;;0.73;81.63;95204.00;5116657;28;996;-46
2022/01/04 04:45:23;;;;;;;;;;;;;;;0.66;80.94;95205.34;5115896;28;1997;-46
2022/01/04 04:47:49;;;;;;;;;;;;;;;0.63;81.01;95203.75;5116273;28;1858;-46
2022/01/04 04:50:15;;;;;;;;;;;;;;;0.70;81.43;95212.06;5116423;28;977;-46
2022/01/04 04:52:41;;;;;;;;;;;;;;;0.69;81.45;95207.78;5116510;28;965;-46
2022/01/04 04:55:08;;;;;;;;;;;;;;;0.67;80.88;95220.19;5148955;27;1099;-46
2022/01/04 04:57:34;;;;;;;;;;;;;;;0.68;80.70;95221.88;5116415;28;1028;-46
2022/01/04 05:00:00;;;;;;;;;;;;;;;0.60;81.32;95218.91;5116001;28;1238;-45
2022/01/04 05:02:26;;;;;;;;;;;;;;;0.58;80.99;95219.81;5116321;28;1039;-46
2022/01/04 05:04:52;;;;;;;;;;;;;;;0.63;80.72;95224.81;5115912;28;1913;-46
2022/01/04 05:07:18;;;;;;;;;;;;;;;0.71;80.78;95234.84;5116098;28;1038;-46
2022/01/04 05:09:44;;;;;;;;;;;;;;;0.72;80.91;95231.25;5116024;28;1030;-46
2022/01/04 05:12:10;;;;;;;;;;;;;;;0.61;81.15;95226.69;5115736;28;1176;-46
2022/01/04 05:14:37;;;;;;;;;;;;;;;0.63;81.36;95227.44;5115465;28;1051;-46
2022/01/04 05:17:04;;;;;;;;;;;;;;;0.65;80.71;95229.97;5115639;28;1080;-46
2022/01/04 05:19:30;;;;;;;;;;;;;;;0.63;80.79;95229.22;5114630;28;1035;-46
2022/01/04 05:21:56;;;;;;;;;;;;;;;0.54;80.32;95243.81;5115725;28;992;-46
2022/01/04 05:24:22;;;;;;;;;;;;;;;0.41;80.25;95248.16;5115639;28;1929;-46
2022/01/04 05:26:48;;;;;;;;;;;;;;;0.42;80.08;95253.34;5115599;28;964;-46
2022/01/04 05:29:14;;;;;;;;;;;;;;;0.40;80.20;95255.22;5115479;28;992;-46
2022/01/04 05:31:40;;;;;;;;;;;;;;;0.38;80.32;95251.84;5115219;28;1119;-46
2022/01/04 05:34:06;;;;;;;;;;;;;;;0.36;80.87;95256.31;5115550;28;976;-46
2022/01/04 05:36:33;;;;;;;;;;;;;;;0.47;80.60;95253.03;5115322;28;1021;-46
2022/01/04 05:39:00;;;;;;;;;;;;;;;0.49;80.15;95251.97;5115310;28;1107;-46
2022/01/04 05:41:26;;;;;;;;;;;;;;;0.48;80.05;95254.72;5115101;28;1016;-46
2022/01/04 05:43:52;;;;;;;;;;;;;;;0.34;79.69;95251.19;5114883;28;1898;-46
2022/01/04 05:46:18;;;;;;;;;;;;;;;0.36;80.92;95244.03;5114902;28;1048;-46
2022/01/04 05:48:45;;;;;;;;;;;;;;;0.41;81.56;95240.28;5115341;28;1067;-46
2022/01/04 05:51:11;;;;;;;;;;;;;;;0.36;81.28;95243.19;5115235;28;1040;-46
2022/01/04 05:53:37;;;;;;;;;;;;;;;0.36;81.66;95233.53;5115098;28;980;-46
2022/01/04 05:56:03;;;;;;;;;;;;;;;0.50;81.64;95240.53;5115020;28;981;-46
2022/01/04 05:58:30;;;;;;;;;;;;;;;0.82;80.49;95240.25;5114804;28;1011;-46
2022/01/04 06:00:56;;;;;;;;;;;;;;;0.92;79.91;95235.22;5113374;28;1044;-46
2022/01/04 06:03:22;;;;;;;;;;;;;;;0.55;78.60;95235.81;5114821;28;1027;-46
2022/01/04 06:05:48;;;;;;;;;;;;;;;0.29;79.96;95231.38;5114762;28;1990;-46
2022/01/04 06:08:14;;;;;;;;;;;;;;;0.49;80.63;95240.63;5114646;28;1083;-46
2022/01/04 06:10:43;;;;;;;;;;;;;;;0.53;80.21;95237.72;5114638;28;1011;-46
2022/01/04 06:15:38;;;;;;;;;;;;;;;0.68;80.33;95232.38;5114250;28;1079;-46
2022/01/04 06:18:04;;;;;;;;;;;;;;;0.57;78.98;95239.19;5114775;28;992;-46
2022/01/04 06:20:30;;;;;;;;;;;;;;;0.55;79.69;95238.47;5114405;28;1202;-46
2022/01/04 06:22:56;;;;;;;;;;;;;;;0.59;79.07;95239.09;5114486;28;1221;-46
2022/01/04 06:25:23;;;;;;;;;;;;;;;0.64;79.34;95231.75;5114343;28;1910;-46
2022/01/04 06:27:51;;;;;;;;;;;;;;;0.61;79.16;95223.19;5114336;28;1064;-46
2022/01/04 06:30:20;;;;;;;;;;;;;;;0.69;79.59;95232.28;5114283;28;968;-46
2022/01/04 06:32:46;;;;;;;;;;;;;;;0.84;79.85;95222.56;5114082;28;1095;-46
2022/01/04 06:35:13;;;;;;;;;;;;;;;0.91;79.34;95223.84;5114606;28;964;-46
2022/01/04 06:37:41;;;;;;;;;;;;;;;1.04;79.92;95228.31;5114363;28;1062;-46
2022/01/04 06:40:08;;;;;;;;;;;;;;;1.17;79.59;95221.28;5114156;28;1160;-46
2022/01/04 06:42:34;;;;;;;;;;;;;;;1.19;79.09;95229.06;5114134;28;1070;-46
2022/01/04 06:45:00;;;;;;;;;;;;;;;1.27;78.66;95232.03;5114006;28;1991;-46
2022/01/04 06:47:26;;;;;;;;;;;;;;;1.23;78.53;95238.47;5114153;28;1031;-46
2022/01/04 06:49:52;;;;;;;;;;;;;;;1.22;78.20;95235.00;5113074;28;1195;-46
2022/01/04 06:52:19;;;;;;;;;;;;;;;1.10;79.42;95227.88;5113872;28;1070;-45
2022/01/04 06:54:46;;;;;;;;;;;;;;;1.19;80.05;95239.63;5114028;28;993;-46
2022/01/04 06:57:12;;;;;;;;;;;;;;;1.29;80.27;95238.03;5114044;28;1064;-46
2022/01/04 06:59:38;;;;;;;;;;;;;;;1.62;78.85;95232.28;5113809;28;1083;-46
2022/01/04 07:02:04;;;;;;;;;;;;;;;1.95;77.44;95238.81;5113675;28;1079;-46
2022/01/04 07:04:30;;;;;;;;;;;;;;;2.17;76.51;95242.63;5113991;28;1914;-46
2022/01/04 07:06:56;;;;;;;;;;;;;;;2.37;75.59;95242.03;5113615;28;1075;-46
2022/01/04 07:09:23;;;;;;;;;;;;;;;3.36;72.40;95235.72;5114096;28;1046;-46
2022/01/04 07:11:51;;;;;;;;;;;;;;;4.44;68.60;95246.81;5113376;28;1212;-46
2022/01/04 07:14:17;;;;;;;;;;;;;;;6.46;61.66;95248.72;5113675;28;1020;-47
2022/01/04 07:16:43;;;;;;;;;;;;;;;7.30;58.24;95245.72;5113521;28;1080;-47
2022/01/04 07:19:09;;;;;;;;;;;;;;;8.04;56.27;95254.09;5113772;28;1055;-47
2022/01/04 07:21:36;;;;;;;;;;;;;;;7.49;57.68;95250.19;5114003;28;1015;-47
2022/01/04 07:24:04;;;;;;;;;;;;;;;6.23;62.17;95246.25;5113726;28;1914;-47
2022/01/04 07:26:30;;;;;;;;;;;;;;;5.36;65.44;95249.13;5113914;28;980;-47
2022/01/04 07:28:57;;;;;;;;;;;;;;;4.67;68.20;95252.94;5113591;28;1097;-47
2022/01/04 07:31:24;;;;;;;;;;;;;;;4.18;71.33;95256.81;5113657;28;1024;-47
2022/01/04 07:33:50;;;;;;;;;;;;;;;3.91;71.35;95259.78;5113492;28;1036;-47
2022/01/04 07:36:16;;;;;;;;;;;;;;;3.63;72.60;95259.25;5113688;28;987;-46
2022/01/04 07:38:43;;;;;;;;;;;;;;;3.36;73.69;95258.66;5113362;28;1048;-46
2022/01/04 07:41:09;;;;;;;;;;;;;;;3.49;73.01;95254.13;5113486;28;1002;-46
2022/01/04 07:43:35;;;;;;;;;;;;;;;3.88;71.45;95274.06;5115303;28;1985;-46
2022/01/04 07:46:02;;;;;;;;;;;;;;;4.05;70.98;95269.31;5117661;28;1074;-46
2022/01/04 07:48:28;;;;;;;;;;;;;;;4.06;71.18;95269.19;5117455;28;971;-46
2022/01/04 07:50:55;;;;;;;;;;;;;;;4.00;71.48;95277.56;5117458;28;989;-46
2022/01/04 07:53:22;;;;;;;;;;;;;;;4.02;72.11;95273.03;5117224;28;1074;-46
2022/01/04 07:55:48;;;;;;;;;;;;;;;4.03;71.74;95271.22;5117218;28;1096;-46
2022/01/04 07:58:15;;;;;;;;;;;;;;;4.01;72.48;95270.50;5117042;28;1049;-46
2022/01/04 08:00:41;;;;;;;;;;;;;;;4.13;72.30;95258.13;5117467;28;1007;-46
2022/01/04 08:03:07;;;;;;;;;;;;;;;4.29;71.98;95256.81;5117271;28;1052;-46
2022/01/04 08:05:33;;;;;;;;;;;;;;;4.42;71.99;95255.81;5117398;28;1910;-46
2022/01/04 08:07:59;;;;;;;;;;;;;;;4.46;71.95;95244.88;5117185;28;1055;-46
2022/01/04 08:10:25;;;;;;;;;;;;;;;4.47;72.30;95248.38;5117287;28;1024;-46
2022/01/04 08:12:51;;;;;;;;;;;;;;;4.55;73.25;95247.75;5116675;28;1200;-46
2022/01/04 08:15:18;;;;;;;;;;;;;;;4.54;72.89;95246.94;5115774;28;1125;-47
2022/01/04 08:17:44;;;;;;;;;;;;;;;4.69;72.59;95244.88;5116920;28;929;-46
2022/01/04 08:20:10;;;;;;;;;;;;;;;4.95;70.91;95247.22;5116844;28;1074;-47
2022/01/04 08:22:36;;;;;;;;;;;;;;;5.23;70.41;95240.50;5116869;28;1060;-46
2022/01/04 08:25:04;;;;;;;;;;;;;;;5.51;70.06;95238.22;5115197;28;1910;-46
2022/01/04 08:27:30;;;;;;;;;;;;;;;5.63;70.04;95230.09;5116635;28;1110;-46
2022/01/04 08:29:57;;;;;;;;;;;;;;;5.76;69.84;95234.34;5116801;28;1051;-47
2022/01/04 08:32:23;;;;;;;;;;;;;;;5.77;69.67;95234.22;5116808;28;1026;-46
2022/01/04 08:34:49;;;;;;;;;;;;;;;5.95;68.99;95241.59;5116358;28;932;-46
2022/01/04 08:37:16;;;;;;;;;;;;;;;6.06;69.38;95237.06;5116564;28;1012;-46
2022/01/04 08:39:42;;;;;;;;;;;;;;;6.12;69.36;95240.19;5116259;28;1023;-46
2022/01/04 08:42:08;;;;;;;;;;;;;;;6.09;69.50;95224.50;5116352;28;1078;-46
2022/01/04 08:44:39;;;;;;;;;;;;;;;6.24;68.14;95225.84;5116346;28;2010;-46
2022/01/04 08:47:09;;;;;;;;;;;;;;;6.61;66.43;95233.28;5116671;28;968;-46
2022/01/04 08:49:36;;;;;;;;;;;;;;;6.51;66.27;95222.63;5116341;27;984;-46
2022/01/04 08:52:03;;;;;;;;;;;;;;;6.44;67.42;95213.50;5116209;28;980;-45
2022/01/04 08:54:30;;;;;;;;;;;;;;;6.80;67.58;95206.75;5116318;28;977;-45
2022/01/04 08:56:56;;;;;;;;;;;;;;;6.61;69.82;95198.72;5116441;28;1168;-46
2022/01/04 08:59:23;;;;;;;;;;;;;;;6.42;70.58;95205.66;5115948;28;1083;-46
2022/01/04 09:01:49;;;;;;;;;;;;;;;6.28;70.72;95200.72;5116218;28;1108;-46
2022/01/04 09:04:15;;;;;;;;;;;;;;;6.14;70.83;95196.59;5115841;28;1988;-46
2022/01/04 09:06:41;;;;;;;;;;;;;;;6.44;70.20;95197.56;5116004;28;1031;-46
2022/01/04 09:09:07;;;;;;;;;;;;;;;6.47;70.20;95193.78;5115991;28;984;-46
2022/01/04 09:11:33;;;;;;;;;;;;;;;6.45;70.96;95193.94;5115995;28;1153;-46
2022/01/04 09:19:20;;;;;;;;;;;;;;;10.22;58.03;95167.88;5116066;28;1044;-46
2022/01/04 09:21:47;;;;;;;;;;;;;;;10.50;57.08;95184.59;5115610;28;1016;-47
2022/01/04 09:24:13;;;;;;;;;;;;;;;10.86;56.00;95171.88;5115433;28;1983;-47
2022/01/04 09:26:39;;;;;;;;;;;;;;;11.03;55.46;95167.41;5115498;28;1024;-47
2022/01/04 09:29:05;;;;;;;;;;;;;;;12.23;51.96;95166.97;5115688;28;1008;-47
2022/01/04 09:31:31;;;;;;;;;;;;;;;13.97;47.94;95160.50;5115701;28;1071;-47
2022/01/04 09:33:59;;;;;;;;;;;;;;;15.48;43.51;95150.31;5115289;28;1195;-47
2022/01/04 09:36:30;;;;;;;;;;;;;;;16.67;39.99;95139.66;5099512;28;953;-47
2022/01/04 09:38:56;;;;;;;;;;;;;;;18.06;37.23;95130.38;5094374;28;1036;-47
2022/01/04 09:41:22;;;;;;;;;;;;;;;18.31;37.68;95127.84;5094933;28;1208;-45
2022/01/04 09:43:49;;;;;;;;;;;;;;;17.96;36.77;95129.94;5094893;28;1906;-45
2022/01/04 09:46:15;;;;;;;;;;;;;;;17.52;38.06;95128.59;5094933;28;1039;-45
2022/01/04 09:48:41;;;;;;;;;;;;;;;18.06;36.99;95116.84;5094841;28;1032;-45
2022/01/04 09:51:10;;;;;;;;;;;;;;;17.88;36.76;95119.31;5094848;28;1102;-45
2022/01/04 09:53:36;;;;;;;;;;;;;;;17.80;36.74;95109.50;5095047;28;1070;-45
2022/01/04 09:56:02;;;;;;;;;;;;;;;17.45;37.09;95103.44;5094781;28;1278;-45
2022/01/04 09:58:28;;;;;;;;;;;;;;;18.00;36.03;95097.88;5094781;28;1000;-45
2022/01/04 10:00:54;;;;;;;;;;;;;;;19.15;33.70;95092.84;5094652;28;1028;-45
2022/01/04 10:03:30;;;;;;;;;;;;;;;20.05;32.74;95084.56;5094471;28;1048;-45
2022/01/04 10:06:01;;;;;;;;;;;;;;;19.80;32.56;95072.88;5093859;28;1902;-45
2022/01/04 10:08:27;;;;;;;;;;;;;;;19.37;33.15;95076.25;5094623;28;996;-45
2022/01/04 10:11:00;;;;;;;;;;;;;;;19.33;33.17;95067.75;5094430;28;1087;-45
2022/01/04 10:13:28;;;;;;;;;;;;;;;19.66;33.01;95064.81;5094815;28;1047;-45
2022/01/04 10:15:55;;;;;;;;;;;;;;;18.87;35.12;95058.78;5094139;28;1076;-45
2022/01/04 10:18:24;;;;;;;;;;;;;;;16.95;37.71;95050.50;5094549;28;945;-45
2022/01/04 10:21:02;;;;;;;;;;;;;;;14.67;41.98;95045.47;5094476;28;973;-45
2022/01/04 10:23:28;;;;;;;;;;;;;;;12.95;45.61;95039.91;5094278;28;2023;-44
2022/01/04 10:26:02;;;;;;;;;;;;;;;12.83;47.32;95040.31;5094065;28;1906;-44
2022/01/04 10:28:28;;;;;;;;;;;;;;;12.84;47.63;95039.31;5094424;28;1003;-44
2022/01/04 10:30:58;;;;;;;;;;;;;;;13.57;45.77;95036.25;5094151;28;1023;-44
2022/01/04 10:33:24;;;;;;;;;;;;;;;15.39;42.52;95033.78;5094315;28;1031;-44
2022/01/04 10:35:52;;;;;;;;;;;;;;;17.00;38.71;95033.72;5094345;28;1012;-44
2022/01/04 10:38:20;;;;;;;;;;;;;;;18.67;35.63;95030.94;5094115;28;972;-44
2022/01/04 10:40:46;;;;;;;;;;;;;;;19.00;35.11;95019.13;5094128;28;998;-45
2022/01/04 10:43:20;;;;;;;;;;;;;;;19.76;33.85;95025.53;5094382;28;957;-45
2022/01/04 10:45:47;;;;;;;;;;;;;;;20.72;32.14;95021.47;5093907;28;1906;-45
2022/01/04 10:48:16;;;;;;;;;;;;;;;21.87;29.92;95018.81;5093869;28;1024;-45
2022/01/04 10:50:43;;;;;;;;;;;;;;;22.31;29.60;95025.63;5094123;28;976;-45
2022/01/04 10:53:18;;;;;;;;;;;;;;;22.72;28.99;95023.75;5093901;28;997;-45
2022/01/04 10:55:47;;;;;;;;;;;;;;;22.88;28.40;95016.75;5092895;28;973;-45
2022/01/04 10:58:24;;;;;;;;;;;;;;;22.48;28.45;95003.94;5093931;28;981;-45
2022/01/04 11:00:51;;;;;;;;;;;;;;;20.94;30.87;95001.94;5093951;28;1043;-45
2022/01/04 11:03:24;;;;;;;;;;;;;;;18.56;34.86;94985.59;5093753;28;1070;-45
2022/01/04 11:06:13;;;;;;;;;;;;;;;16.29;37.82;94980.06;5093804;28;1906;-44
2022/01/04 11:08:40;;;;;;;;;;;;;;;13.97;43.52;94972.34;5090628;28;1177;-44
2022/01/04 11:11:07;;;;;;;;;;;;;;;12.85;45.95;94976.56;5093637;28;1047;-44
2022/01/04 11:13:33;;;;;;;;;;;;;;;12.37;48.90;94975.91;5093549;28;1024;-44
2022/01/04 11:16:01;;;;;;;;;;;;;;;12.00;49.24;94964.00;5093395;28;1060;-44
2022/01/04 11:18:27;;;;;;;;;;;;;;;12.18;49.88;94966.47;5097240;28;1019;-44
2022/01/04 11:20:54;;;;;;;;;;;;;;;12.13;50.05;94965.31;5097991;28;1027;-44
2022/01/04 11:23:46;;;;;;;;;;;;;;;11.85;51.21;94955.00;5097976;28;1047;-44
2022/01/04 11:26:13;;;;;;;;;;;;;;;12.05;50.43;94958.97;5096493;28;1827;-44
2022/01/04 11:28:41;;;;;;;;;;;;;;;11.69;50.50;94950.56;5097658;28;1212;-44
2022/01/04 11:31:13;;;;;;;;;;;;;;;11.32;51.46;94957.34;5097468;28;1039;-44
2022/01/04 11:33:46;;;;;;;;;;;;;;;11.56;51.31;94947.59;5097596;28;1098;-44
2022/01/04 11:36:13;;;;;;;;;;;;;;;11.84;50.97;94946.16;5097797;28;976;-44
2022/01/04 11:38:40;;;;;;;;;;;;;;;11.82;52.19;94948.16;5097716;28;1056;-44
2022/01/04 11:41:06;;;;;;;;;;;;;;;11.54;52.49;94939.72;5097285;28;1024;-44
2022/01/04 11:43:34;;;;;;;;;;;;;;;11.63;52.45;94943.19;5097232;28;1032;-44
2022/01/04 11:46:30;;;;;;;;;;;;;;;11.49;53.19;94926.84;5097324;28;1123;-44
2022/01/04 11:49:06;;;;;;;;;;;;;;;11.09;54.28;94925.09;5097403;28;968;-43
2022/01/04 11:51:32;;;;;;;;;;;;;;;11.12;55.10;94922.94;5097534;28;1047;-44
2022/01/04 11:54:15;;;;;;;;;;;;;;;11.12;54.27;94925.59;5097326;28;995;-44
2022/01/04 11:56:46;;;;;;;;;;;;;;;11.66;53.33;94916.91;5097545;28;1071;-44
2022/01/04 11:59:24;;;;;;;;;;;;;;;11.97;53.60;94920.66;5097338;28;978;-44
2022/01/04 12:01:50;;;;;;;;;;;;;;;11.91;53.46;94906.13;5097287;28;993;-44
2022/01/04 12:04:35;;;;;;;;;;;;;;;12.26;52.79;94902.06;5096864;28;1984;-44
2022/01/04 12:07:01;;;;;;;;;;;;;;;12.49;52.06;94895.88;5096835;28;925;-44
2022/01/04 12:09:29;;;;;;;;;;;;;;;12.42;52.52;94894.94;5097067;28;1060;-44
2022/01/04 12:11:55;;;;;;;;;;;;;;;12.46;52.78;94885.50;5096810;28;1864;-44
2022/01/04 12:14:23;;;;;;;;;;;;;;;12.60;51.67;94882.06;5096836;28;1064;-44
2022/01/04 12:17:07;;;;;;;;;;;;;;;12.48;51.95;94880.78;5096678;28;1299;-44
2022/01/04 12:19:49;;;;;;;;;;;;;;;12.35;51.98;94876.06;5096707;28;1036;-44
2022/01/04 12:22:29;;;;;;;;;;;;;;;12.34;52.07;94871.69;5096594;28;1164;-44
2022/01/04 12:25:00;;;;;;;;;;;;;;;12.29;52.88;94868.69;5096432;28;1996;-44
2022/01/04 12:27:27;;;;;;;;;;;;;;;12.15;53.18;94866.81;5096821;28;956;-44
2022/01/04 12:30:13;;;;;;;;;;;;;;;12.16;52.09;94866.63;5096082;28;1051;-43
2022/01/04 12:32:39;;;;;;;;;;;;;;;12.10;53.13;94864.66;5096397;28;1439;-44
2022/01/04 12:35:08;;;;;;;;;;;;;;;12.09;52.47;94857.63;5096443;28;1052;-44
2022/01/04 12:37:35;;;;;;;;;;;;;;;12.01;52.43;94854.97;5096311;28;1099;-43
2022/01/04 12:40:01;;;;;;;;;;;;;;;11.85;53.08;94853.22;5096346;28;1162;-44
2022/01/04 12:42:27;;;;;;;;;;;;;;;11.87;52.58;94843.97;5096562;28;1001;-44
2022/01/04 12:44:55;;;;;;;;;;;;;;;11.85;53.20;94850.53;5096091;28;1902;-44
2022/01/04 12:47:22;;;;;;;;;;;;;;;11.75;52.90;94841.91;5096320;28;1051;-44
2022/01/04 12:49:48;;;;;;;;;;;;;;;11.70;52.13;94842.41;5096255;28;1051;-44
2022/01/04 12:52:17;;;;;;;;;;;;;;;11.65;52.95;94837.59;5096043;28;1098;-44
2022/01/04 12:54:45;;;;;;;;;;;;;;;11.61;53.82;94838.09;5095813;28;1048;-44
2022/01/04 12:57:12;;;;;;;;;;;;;;;11.50;54.51;94837.50;5095929;28;1047;-44
2022/01/04 12:59:40;;;;;;;;;;;;;;;11.40;54.73;94834.22;5096532;28;981;-44
2022/01/04 13:02:15;;;;;;;;;;;;;;;11.34;53.76;94834.88;5095995;28;972;-44
2022/01/04 13:04:43;;;;;;;;;;;;;;;11.31;54.57;94841.44;5095686;28;1898;-44
2022/01/04 13:07:12;;;;;;;;;;;;;;;11.26;54.54;94826.88;5095677;28;1968;-44
2022/01/04 13:09:38;;;;;;;;;;;;;;;11.28;54.01;94830.22;5095617;28;1550;-44
2022/01/04 13:12:04;;;;;;;;;;;;;;;11.24;54.91;94829.75;5095914;28;1063;-43
2022/01/04 13:14:32;;;;;;;;;;;;;;;11.24;54.19;94836.94;5095602;28;1028;-44
2022/01/04 13:17:04;;;;;;;;;;;;;;;11.24;53.39;94826.22;5095418;28;1102;-44